sensor_id;sensor_type;location;lat;lon;timestamp;pressure;altitude;pressure_sealevel;temperature;humidity
12172;BME280;6149;52.418;13.668;2023-02-22T00:00:25;101271.09;;;6.40;100.00
12172;BME280;6149;52.418;13.668;2023-02-22T00:03:06;101261.59;;;6.34;100.00
12172;BME280;6149;52.418;13.668;2023-02-22T00:05:34;101265.25;;;6.30;100.00
12172;BME280;6149;52.418;13.668;2023-02-22T00:08:03;101270.63;;;6.24;100.00
12172;BME280;6149;52.418;13.668;2023-02-22T00:10:34;101262.00;;;6.19;100.00
12172;BME280;6149;52.418;13.668;2023-02-22T00:13:03;101266.44;;;6.17;100.00
12172;BME280;6149;52.418;13.668;2023-02-22T00:15:31;101266.44;;;6.17;100.00
12172;BME280;6149;52.418;13.668;2023-02-22T00:17:58;101266.47;;;6.16;100.00
12172;BME280;6149;52.418;13.668;2023-02-22T00:20:26;101268.22;;;6.15;100.00
12172;BME280;6149;52.418;13.668;2023-02-22T00:22:53;101261.25;;;6.14;100.00
12172;BME280;6149;52.418;13.668;2023-02-22T00:25:23;101262.19;;;6.12;100.00
12172;BME280;6149;52.418;13.668;2023-02-22T00:27:50;101260.56;;;6.06;100.00
12172;BME280;6149;52.418;13.668;2023-02-22T00:30:20;101263.28;;;6.03;100.00
12172;BME280;6149;52.418;13.668;2023-02-22T00:32:49;101254.56;;;6.01;100.00
12172;BME280;6149;52.418;13.668;2023-02-22T00:35:19;101254.66;;;5.96;100.00
12172;BME280;6149;52.418;13.668;2023-02-22T00:37:48;101256.47;;;5.94;100.00
12172;BME280;6149;52.418;13.668;2023-02-22T00:40:18;101260.06;;;5.92;100.00
12172;BME280;6149;52.418;13.668;2023-02-22T00:42:46;101256.59;;;5.90;100.00
12172;BME280;6149;52.418;13.668;2023-02-22T00:45:15;101251.38;;;5.87;100.00
12172;BME280;6149;52.418;13.668;2023-02-22T00:47:43;101257.59;;;5.83;100.00
12172;BME280;6149;52.418;13.668;2023-02-22T00:50:10;101261.19;;;5.79;100.00
12172;BME280;6149;52.418;13.668;2023-02-22T00:52:37;101264.84;;;5.71;100.00
12172;BME280;6149;52.418;13.668;2023-02-22T00:55:08;101258.84;;;5.66;100.00
12172;BME280;6149;52.418;13.668;2023-02-22T00:57:36;101256.34;;;5.60;100.00
12172;BME280;6149;52.418;13.668;2023-02-22T01:00:06;101257.38;;;5.55;100.00
12172;BME280;6149;52.418;13.668;2023-02-22T01:02:37;101254.81;;;5.52;100.00
12172;BME280;6149;52.418;13.668;2023-02-22T01:05:04;101265.38;;;5.49;100.00
12172;BME280;6149;52.418;13.668;2023-02-22T01:07:31;101265.47;;;5.44;100.00
12172;BME280;6149;52.418;13.668;2023-02-22T01:09:58;101264.69;;;5.39;100.00
12172;BME280;6149;52.418;13.668;2023-02-22T01:12:26;101262.97;;;5.38;100.00
12172;BME280;6149;52.418;13.668;2023-02-22T01:14:54;101262.09;;;5.37;100.00
12172;BME280;6149;52.418;13.668;2023-02-22T01:17:21;101259.47;;;5.37;100.00
12172;BME280;6149;52.418;13.668;2023-02-22T01:19:48;101262.13;;;5.36;100.00
12172;BME280;6149;52.418;13.668;2023-02-22T01:22:14;101256.94;;;5.34;100.00
12172;BME280;6149;52.418;13.668;2023-02-22T01:24:41;101260.50;;;5.30;100.00
12172;BME280;6149;52.418;13.668;2023-02-22T01:27:07;101259.72;;;5.25;100.00
12172;BME280;6149;52.418;13.668;2023-02-22T01:29:36;101263.31;;;5.21;100.00
12172;BME280;6149;52.418;13.668;2023-02-22T01:32:03;101250.34;;;5.15;100.00
12172;BME280;6149;52.418;13.668;2023-02-22T01:34:31;101253.91;;;5.13;100.00
12172;BME280;6149;52.418;13.668;2023-02-22T01:36:58;101248.72;;;5.10;100.00
12172;BME280;6149;52.418;13.668;2023-02-22T01:39:25;101248.81;;;5.05;100.00
12172;BME280;6149;52.418;13.668;2023-02-22T01:41:52;101252.47;;;4.96;100.00
12172;BME280;6149;52.418;13.668;2023-02-22T01:44:25;101249.88;;;4.95;100.00
12172;BME280;6149;52.418;13.668;2023-02-22T01:46:55;101238.66;;;4.88;100.00
12172;BME280;6149;52.418;13.668;2023-02-22T01:49:24;101240.53;;;4.82;100.00
12172;BME280;6149;52.418;13.668;2023-02-22T01:51:56;101243.31;;;4.74;100.00
12172;BME280;6149;52.418;13.668;2023-02-22T01:54:26;101244.34;;;4.65;100.00
12172;BME280;6149;52.418;13.668;2023-02-22T01:56:59;101247.00;;;4.62;100.00
12172;BME280;6149;52.418;13.668;2023-02-22T01:59:32;101251.47;;;4.57;100.00
12172;BME280;6149;52.418;13.668;2023-02-22T02:02:02;101247.28;;;4.47;100.00
12172;BME280;6149;52.418;13.668;2023-02-22T02:04:30;101247.47;;;4.38;100.00
12172;BME280;6149;52.418;13.668;2023-02-22T02:07:00;101245.84;;;4.31;100.00
12172;BME280;6149;52.418;13.668;2023-02-22T02:09:33;101249.44;;;4.24;100.00
12172;BME280;6149;52.418;13.668;2023-02-22T02:12:05;101241.69;;;4.18;100.00
12172;BME280;6149;52.418;13.668;2023-02-22T02:14:34;101238.25;;;4.14;100.00
12172;BME280;6149;52.418;13.668;2023-02-22T02:17:07;101238.28;;;4.11;100.00
12172;BME280;6149;52.418;13.668;2023-02-22T02:19:42;101239.19;;;4.10;100.00
12172;BME280;6149;52.418;13.668;2023-02-22T02:22:20;101233.16;;;4.08;100.00
12172;BME280;6149;52.418;13.668;2023-02-22T02:25:10;101241.88;;;4.07;100.00
12172;BME280;6149;52.418;13.668;2023-02-22T02:28:50;101235.84;;;4.03;100.00
12172;BME280;6149;52.418;13.668;2023-02-22T02:34:59;101236.81;;;3.96;100.00
12172;BME280;6149;52.418;13.668;2023-02-22T02:37:35;101237.78;;;3.91;100.00
12172;BME280;6149;52.418;13.668;2023-02-22T02:40:10;101237.84;;;3.86;100.00
12172;BME280;6149;52.418;13.668;2023-02-22T02:42:50;101233.56;;;3.81;100.00
12172;BME280;6149;52.418;13.668;2023-02-22T02:45:23;101240.63;;;3.74;100.00
12172;BME280;6149;52.418;13.668;2023-02-22T02:47:55;101247.72;;;3.67;100.00
12172;BME280;6149;52.418;13.668;2023-02-22T02:50:26;101246.03;;;3.63;100.00
12172;BME280;6149;52.418;13.668;2023-02-22T02:52:58;101242.59;;;3.61;100.00
12172;BME280;6149;52.418;13.668;2023-02-22T02:55:29;101246.94;;;3.61;100.00
12172;BME280;6149;52.418;13.668;2023-02-22T02:57:57;101241.69;;;3.62;100.00
12172;BME280;6149;52.418;13.668;2023-02-22T03:00:28;101240.81;;;3.63;100.00
12172;BME280;6149;52.418;13.668;2023-02-22T03:03:16;101237.31;;;3.64;100.00
12172;BME280;6149;52.418;13.668;2023-02-22T03:06:06;101238.16;;;3.66;100.00
12172;BME280;6149;52.418;13.668;2023-02-22T03:08:42;101237.28;;;3.67;100.00
12172;BME280;6149;52.418;13.668;2023-02-22T03:11:14;101239.84;;;3.69;100.00
12172;BME280;6149;52.418;13.668;2023-02-22T03:13:52;101238.09;;;3.71;100.00
12172;BME280;6149;52.418;13.668;2023-02-22T03:16:31;101231.06;;;3.73;100.00
12172;BME280;6149;52.418;13.668;2023-02-22T03:19:08;101227.56;;;3.74;100.00
12172;BME280;6149;52.418;13.668;2023-02-22T03:21:44;101223.19;;;3.75;100.00
12172;BME280;6149;52.418;13.668;2023-02-22T03:24:18;101222.31;;;3.76;100.00
12172;BME280;6149;52.418;13.668;2023-02-22T03:26:53;101222.31;;;3.76;100.00
12172;BME280;6149;52.418;13.668;2023-02-22T03:29:29;101226.66;;;3.75;100.00
12172;BME280;6149;52.418;13.668;2023-02-22T03:32:02;101222.34;;;3.73;100.00
12172;BME280;6149;52.418;13.668;2023-02-22T03:34:37;101223.22;;;3.72;100.00
12172;BME280;6149;52.418;13.668;2023-02-22T03:37:10;101232.03;;;3.67;100.00
12172;BME280;6149;52.418;13.668;2023-02-22T03:39:41;101230.34;;;3.63;100.00
12172;BME280;6149;52.418;13.668;2023-02-22T03:42:13;101232.16;;;3.58;100.00
12172;BME280;6149;52.418;13.668;2023-02-22T03:44:42;101233.06;;;3.56;100.00
12172;BME280;6149;52.418;13.668;2023-02-22T03:47:15;101233.97;;;3.53;100.00
12172;BME280;6149;52.418;13.668;2023-02-22T03:49:50;101229.66;;;3.49;100.00
12172;BME280;6149;52.418;13.668;2023-02-22T03:52:19;101234.94;;;3.46;100.00
12172;BME280;6149;52.418;13.668;2023-02-22T03:54:47;101226.28;;;3.43;100.00
12172;BME280;6149;52.418;13.668;2023-02-22T03:57:24;101228.91;;;3.41;100.00
12172;BME280;6149;52.418;13.668;2023-02-22T03:59:52;101236.75;;;3.41;100.00
12172;BME280;6149;52.418;13.668;2023-02-22T04:02:19;101232.41;;;3.40;100.00
12172;BME280;6149;52.418;13.668;2023-02-22T04:04:49;101235.91;;;3.39;100.00
12172;BME280;6149;52.418;13.668;2023-02-22T04:07:16;101235.91;;;3.39;100.00
12172;BME280;6149;52.418;13.668;2023-02-22T04:09:43;101230.69;;;3.39;100.00
12172;BME280;6149;52.418;13.668;2023-02-22T04:12:11;101232.44;;;3.39;100.00
12172;BME280;6149;52.418;13.668;2023-02-22T04:14:37;101232.44;;;3.39;100.00
12172;BME280;6149;52.418;13.668;2023-02-22T04:17:04;101235.03;;;3.40;100.00
12172;BME280;6149;52.418;13.668;2023-02-22T04:19:30;101228.91;;;3.41;100.00
12172;BME280;6149;52.418;13.668;2023-02-22T04:21:58;101229.78;;;3.42;100.00
12172;BME280;6149;52.418;13.668;2023-02-22T04:24:25;101232.38;;;3.43;100.00
12172;BME280;6149;52.418;13.668;2023-02-22T04:26:51;101239.31;;;3.44;100.00
12172;BME280;6149;52.418;13.668;2023-02-22T04:29:19;101234.97;;;3.45;100.00
12172;BME280;6149;52.418;13.668;2023-02-22T04:31:46;101238.41;;;3.47;100.00
12172;BME280;6149;52.418;13.668;2023-02-22T04:34:12;101229.66;;;3.49;100.00
12172;BME280;6149;52.418;13.668;2023-02-22T04:36:39;101221.81;;;3.49;100.00
12172;BME280;6149;52.418;13.668;2023-02-22T04:39:07;101226.19;;;3.50;100.00
12172;BME280;6149;52.418;13.668;2023-02-22T04:41:34;101226.19;;;3.50;100.00
12172;BME280;6149;52.418;13.668;2023-02-22T04:44:00;101227.06;;;3.49;100.00
12172;BME280;6149;52.418;13.668;2023-02-22T04:46:28;101234.91;;;3.49;100.00
12172;BME280;6149;52.418;13.668;2023-02-22T04:48:55;101223.56;;;3.49;100.00
12172;BME280;6149;52.418;13.668;2023-02-22T04:51:23;101225.34;;;3.47;100.00
12172;BME280;6149;52.418;13.668;2023-02-22T04:53:49;101230.59;;;3.45;100.00
12172;BME280;6149;52.418;13.668;2023-02-22T04:56:18;101229.75;;;3.43;100.00
12172;BME280;6149;52.418;13.668;2023-02-22T04:58:44;101222.78;;;3.42;100.00
12172;BME280;6149;52.418;13.668;2023-02-22T05:01:13;101223.69;;;3.41;100.00
12172;BME280;6149;52.418;13.668;2023-02-22T05:03:40;101223.69;;;3.40;100.00
12172;BME280;6149;52.418;13.668;2023-02-22T05:06:07;101223.72;;;3.38;100.00
12172;BME280;6149;52.418;13.668;2023-02-22T05:08:34;101231.59;;;3.35;100.00
12172;BME280;6149;52.418;13.668;2023-02-22T05:11:00;101226.44;;;3.32;100.00
12172;BME280;6149;52.418;13.668;2023-02-22T05:13:28;101221.22;;;3.30;100.00
12172;BME280;6149;52.418;13.668;2023-02-22T05:15:54;101221.28;;;3.26;100.00
12172;BME280;6149;52.418;13.668;2023-02-22T05:18:21;101224.81;;;3.22;100.00
12172;BME280;6149;52.418;13.668;2023-02-22T05:20:48;101224.88;;;3.17;100.00
12172;BME280;6149;52.418;13.668;2023-02-22T05:23:14;101223.19;;;3.13;100.00
12172;BME280;6149;52.418;13.668;2023-02-22T05:25:41;101222.38;;;3.10;100.00
12172;BME280;6149;52.418;13.668;2023-02-22T05:28:10;101225.00;;;3.07;100.00
12172;BME280;6149;52.418;13.668;2023-02-22T05:30:44;101222.47;;;3.00;100.00
12172;BME280;6149;52.418;13.668;2023-02-22T05:33:11;101227.72;;;2.97;100.00
12172;BME280;6149;52.418;13.668;2023-02-22T05:35:38;101227.84;;;2.91;100.00
12172;BME280;6149;52.418;13.668;2023-02-22T05:38:05;101225.22;;;2.90;100.00
12172;BME280;6149;52.418;13.668;2023-02-22T05:40:32;101219.16;;;2.89;100.00
12172;BME280;6149;52.418;13.668;2023-02-22T05:42:59;101222.63;;;2.90;100.00
12172;BME280;6149;52.418;13.668;2023-02-22T05:45:27;101221.75;;;2.89;100.00
12172;BME280;6149;52.418;13.668;2023-02-22T05:47:55;101227.88;;;2.88;100.00
12172;BME280;6149;52.418;13.668;2023-02-22T05:50:23;101233.09;;;2.87;100.00
12172;BME280;6149;52.418;13.668;2023-02-22T05:52:50;101234.81;;;2.89;100.00
12172;BME280;6149;52.418;13.668;2023-02-22T05:55:19;101235.66;;;2.91;100.00
12172;BME280;6149;52.418;13.668;2023-02-22T05:57:47;101238.28;;;2.91;100.00
12172;BME280;6149;52.418;13.668;2023-02-22T06:00:17;101231.28;;;2.93;100.00
12172;BME280;6149;52.418;13.668;2023-02-22T06:02:52;101237.38;;;2.94;100.00
12172;BME280;6149;52.418;13.668;2023-02-22T06:05:21;101233.03;;;2.94;100.00
12172;BME280;6149;52.418;13.668;2023-02-22T06:07:48;101238.25;;;2.94;100.00
12172;BME280;6149;52.418;13.668;2023-02-22T06:10:15;101237.38;;;2.94;100.00
12172;BME280;6149;52.418;13.668;2023-02-22T06:12:41;101239.97;;;2.97;100.00
12172;BME280;6149;52.418;13.668;2023-02-22T06:15:08;101238.19;;;2.97;100.00
12172;BME280;6149;52.418;13.668;2023-02-22T06:17:35;101246.00;;;2.99;100.00
12172;BME280;6149;52.418;13.668;2023-02-22T06:20:03;101244.22;;;3.01;100.00
12172;BME280;6149;52.418;13.668;2023-02-22T06:22:30;101242.47;;;3.03;100.00
12172;BME280;6149;52.418;13.668;2023-02-22T06:24:56;101235.44;;;3.08;100.00
12172;BME280;6149;52.418;13.668;2023-02-22T06:27:23;101246.69;;;3.15;100.00
12172;BME280;6149;52.418;13.668;2023-02-22T06:29:49;101243.19;;;3.16;100.00
12172;BME280;6149;52.418;13.668;2023-02-22T06:32:16;101246.66;;;3.18;100.00
12172;BME280;6149;52.418;13.668;2023-02-22T06:34:42;101251.84;;;3.21;100.00
12172;BME280;6149;52.418;13.668;2023-02-22T06:37:10;101250.06;;;3.23;100.00
12172;BME280;6149;52.418;13.668;2023-02-22T06:39:37;101250.03;;;3.27;100.00
12172;BME280;6149;52.418;13.668;2023-02-22T06:42:04;101254.31;;;3.31;100.00
12172;BME280;6149;52.418;13.668;2023-02-22T06:44:30;101258.59;;;3.35;100.00
12172;BME280;6149;52.418;13.668;2023-02-22T06:46:57;101266.38;;;3.40;100.00
12172;BME280;6149;52.418;13.668;2023-02-22T06:49:25;101265.44;;;3.46;100.00
12172;BME280;6149;52.418;13.668;2023-02-22T06:51:53;101270.59;;;3.52;100.00
12172;BME280;6149;52.418;13.668;2023-02-22T06:54:21;101273.16;;;3.56;100.00
12172;BME280;6149;52.418;13.668;2023-02-22T06:56:47;101271.34;;;3.61;100.00
12172;BME280;6149;52.418;13.668;2023-02-22T06:59:14;101271.28;;;3.66;100.00
12172;BME280;6149;52.418;13.668;2023-02-22T07:01:41;101274.66;;;3.73;100.00
12172;BME280;6149;52.418;13.668;2023-02-22T07:04:08;101270.22;;;3.78;100.00
12172;BME280;6149;52.418;13.668;2023-02-22T07:06:35;101278.88;;;3.83;100.00
12172;BME280;6149;52.418;13.668;2023-02-22T07:09:02;101266.59;;;3.88;100.00
12172;BME280;6149;52.418;13.668;2023-02-22T07:11:30;101273.47;;;3.93;100.00
12172;BME280;6149;52.418;13.668;2023-02-22T07:13:57;101270.81;;;3.98;100.00
12172;BME280;6149;52.418;13.668;2023-02-22T07:16:23;101275.06;;;4.05;100.00
12172;BME280;6149;52.418;13.668;2023-02-22T07:18:50;101280.19;;;4.10;100.00
12172;BME280;6149;52.418;13.668;2023-02-22T07:21:16;101279.22;;;4.15;100.00
12172;BME280;6149;52.418;13.668;2023-02-22T07:23:50;101281.72;;;4.23;100.00
12172;BME280;6149;52.418;13.668;2023-02-22T07:26:17;101281.63;;;4.29;100.00
12172;BME280;6149;52.418;13.668;2023-02-22T07:28:46;101279.78;;;4.35;100.00
12172;BME280;6149;52.418;13.668;2023-02-22T07:31:13;101274.47;;;4.42;100.00
12172;BME280;6149;52.418;13.668;2023-02-22T07:33:39;101276.91;;;4.49;100.00
12172;BME280;6149;52.418;13.668;2023-02-22T07:36:06;101274.16;;;4.57;100.00
12172;BME280;6149;52.418;13.668;2023-02-22T07:38:33;101278.44;;;4.62;100.00
12172;BME280;6149;52.418;13.668;2023-02-22T07:41:00;101277.44;;;4.69;100.00
12172;BME280;6149;52.418;13.668;2023-02-22T07:43:27;101279.06;;;4.77;100.00
12172;BME280;6149;52.418;13.668;2023-02-22T07:45:59;101278.03;;;4.84;100.00
12172;BME280;6149;52.418;13.668;2023-02-22T07:48:29;101275.28;;;4.91;100.00
12172;BME280;6149;52.418;13.668;2023-02-22T07:50:56;101284.75;;;4.98;100.00
12172;BME280;6149;52.418;13.668;2023-02-22T07:53:25;101277.63;;;5.05;100.00
12172;BME280;6149;52.418;13.668;2023-02-22T07:55:54;101273.13;;;5.12;100.00
12172;BME280;6149;52.418;13.668;2023-02-22T07:58:24;101270.41;;;5.18;100.00
12172;BME280;6149;52.418;13.668;2023-02-22T08:00:52;101272.88;;;5.24;100.00
12172;BME280;6149;52.418;13.668;2023-02-22T08:03:22;101274.47;;;5.31;100.00
12172;BME280;6149;52.418;13.668;2023-02-22T08:05:52;101273.53;;;5.35;100.00
12172;BME280;6149;52.418;13.668;2023-02-22T08:08:20;101273.38;;;5.43;100.00
12172;BME280;6149;52.418;13.668;2023-02-22T08:10:47;101275.88;;;5.49;100.00
12172;BME280;6149;52.418;13.668;2023-02-22T08:13:15;101279.19;;;5.57;100.00
12172;BME280;6149;52.418;13.668;2023-02-22T08:15:43;101279.00;;;5.64;100.00
12172;BME280;6149;52.418;13.668;2023-02-22T08:18:12;101274.47;;;5.71;100.00
12172;BME280;6149;52.418;13.668;2023-02-22T08:20:43;101274.34;;;5.77;100.00
12172;BME280;6149;52.418;13.668;2023-02-22T08:23:12;101281.22;;;5.83;100.00
12172;BME280;6149;52.418;13.668;2023-02-22T08:25:40;101272.34;;;5.90;100.00
12172;BME280;6149;52.418;13.668;2023-02-22T08:28:08;101267.81;;;5.95;100.00
12172;BME280;6149;52.418;13.668;2023-02-22T08:30:37;101272.03;;;6.02;100.00
12172;BME280;6149;52.418;13.668;2023-02-22T08:33:04;101274.53;;;6.08;100.00
12172;BME280;6149;52.418;13.668;2023-02-22T08:35:32;101282.25;;;6.14;100.00
12172;BME280;6149;52.418;13.668;2023-02-22T08:38:02;101269.06;;;6.17;100.00
12172;BME280;6149;52.418;13.668;2023-02-22T08:40:32;101278.56;;;6.23;100.00
12172;BME280;6149;52.418;13.668;2023-02-22T08:42:59;101267.94;;;6.27;100.00
12172;BME280;6149;52.418;13.668;2023-02-22T08:45:26;101268.66;;;6.32;100.00
12172;BME280;6149;52.418;13.668;2023-02-22T08:47:53;101265.78;;;6.43;100.00
12172;BME280;6149;52.418;13.668;2023-02-22T08:50:22;101273.50;;;6.49;100.00
12172;BME280;6149;52.418;13.668;2023-02-22T08:52:50;101275.03;;;6.58;100.00
12172;BME280;6149;52.418;13.668;2023-02-22T08:55:20;101277.38;;;6.68;100.00
12172;BME280;6149;52.418;13.668;2023-02-22T08:57:47;101278.06;;;6.75;100.00
12172;BME280;6149;52.418;13.668;2023-02-22T09:00:16;101278.81;;;6.80;100.00
12172;BME280;6149;52.418;13.668;2023-02-22T09:02:43;101279.84;;;6.75;100.00
12172;BME280;6149;52.418;13.668;2023-02-22T09:05:10;101278.16;;;6.72;100.00
12172;BME280;6149;52.418;13.668;2023-02-22T09:07:40;101280.75;;;6.74;100.00
12172;BME280;6149;52.418;13.668;2023-02-22T09:10:07;101283.28;;;6.77;100.00
12172;BME280;6149;52.418;13.668;2023-02-22T09:12:37;101285.75;;;6.83;100.00
12172;BME280;6149;52.418;13.668;2023-02-22T09:15:03;101283.91;;;6.86;100.00
12172;BME280;6149;52.418;13.668;2023-02-22T09:17:30;101286.41;;;6.91;100.00
12172;BME280;6149;52.418;13.668;2023-02-22T09:19:57;101291.56;;;6.95;100.00
12172;BME280;6149;52.418;13.668;2023-02-22T09:22:23;101286.13;;;7.01;100.00
12172;BME280;6149;52.418;13.668;2023-02-22T09:24:51;101290.34;;;7.07;100.00
12172;BME280;6149;52.418;13.668;2023-02-22T09:27:17;101289.31;;;7.13;100.00
12172;BME280;6149;52.418;13.668;2023-02-22T09:29:48;101276.91;;;7.18;100.00
12172;BME280;6149;52.418;13.668;2023-02-22T09:32:14;101282.81;;;7.26;100.00
12172;BME280;6149;52.418;13.668;2023-02-22T09:34:43;101286.22;;;7.29;100.00
12172;BME280;6149;52.418;13.668;2023-02-22T09:37:11;101286.16;;;7.31;100.00
12172;BME280;6149;52.418;13.668;2023-02-22T09:39:38;101285.19;;;7.35;100.00
12172;BME280;6149;52.418;13.668;2023-02-22T09:42:10;101288.53;;;7.40;100.00
12172;BME280;6149;52.418;13.668;2023-02-22T09:44:42;101279.63;;;7.44;100.00
12172;BME280;6149;52.418;13.668;2023-02-22T09:47:18;101281.25;;;7.48;100.00
12172;BME280;6149;52.418;13.668;2023-02-22T09:49:53;101282.75;;;7.57;100.00
12172;BME280;6149;52.418;13.668;2023-02-22T09:52:27;101276.41;;;7.64;100.00
12172;BME280;6149;52.418;13.668;2023-02-22T09:55:06;101268.38;;;7.68;100.00
12172;BME280;6149;52.418;13.668;2023-02-22T09:57:36;101273.47;;;7.75;100.00
12172;BME280;6149;52.418;13.668;2023-02-22T10:00:12;101264.16;;;7.91;100.00
12172;BME280;6149;52.418;13.668;2023-02-22T10:02:48;101263.16;;;7.95;100.00
12172;BME280;6149;52.418;13.668;2023-02-22T10:05:22;101263.94;;;7.98;100.00
12172;BME280;6149;52.418;13.668;2023-02-22T10:07:55;101268.13;;;8.04;100.00
12172;BME280;6149;52.418;13.668;2023-02-22T10:10:29;101263.59;;;8.09;100.00
12172;BME280;6149;52.418;13.668;2023-02-22T10:13:03;101258.91;;;8.17;100.00
12172;BME280;6149;52.418;13.668;2023-02-22T10:15:43;101263.84;;;8.28;100.00
12172;BME280;6149;52.418;13.668;2023-02-22T10:18:32;101263.63;;;8.35;100.00
12172;BME280;6149;52.418;13.668;2023-02-22T10:21:16;101253.88;;;8.37;100.00
12172;BME280;6149;52.418;13.668;2023-02-22T10:23:59;101255.41;;;8.45;100.00
12172;BME280;6149;52.418;13.668;2023-02-22T10:26:34;101260.38;;;8.54;100.00
12172;BME280;6149;52.418;13.668;2023-02-22T10:29:04;101256.69;;;8.58;100.00
12172;BME280;6149;52.418;13.668;2023-02-22T10:31:39;101257.41;;;8.63;100.00
12172;BME280;6149;52.418;13.668;2023-02-22T10:34:13;101253.75;;;8.67;100.00
12172;BME280;6149;52.418;13.668;2023-02-22T10:36:42;101251.88;;;8.70;100.00
12172;BME280;6149;52.418;13.668;2023-02-22T10:39:15;101247.84;;;8.85;100.00
12172;BME280;6149;52.418;13.668;2023-02-22T10:41:56;101242.50;;;8.87;100.00
12172;BME280;6149;52.418;13.668;2023-02-22T10:44:30;101245.75;;;8.93;100.00
12172;BME280;6149;52.418;13.668;2023-02-22T10:46:58;101241.28;;;8.95;100.00
12172;BME280;6149;52.418;13.668;2023-02-22T10:49:32;101235.91;;;8.98;100.00
12172;BME280;6149;52.418;13.668;2023-02-22T10:52:03;101238.38;;;9.03;100.00
12172;BME280;6149;52.418;13.668;2023-02-22T10:54:35;101237.13;;;9.13;100.00
12172;BME280;6149;52.418;13.668;2023-02-22T10:57:04;101232.44;;;9.21;100.00
12172;BME280;6149;52.418;13.668;2023-02-22T10:59:33;101247.19;;;9.27;99.04
12172;BME280;6149;52.418;13.668;2023-02-22T11:02:17;101244.34;;;9.31;99.29
12172;BME280;6149;52.418;13.668;2023-02-22T11:04:49;101239.81;;;9.35;97.55
12172;BME280;6149;52.418;13.668;2023-02-22T11:07:20;101242.41;;;9.36;97.36
12172;BME280;6149;52.418;13.668;2023-02-22T11:09:51;101238.22;;;9.31;95.17
12172;BME280;6149;52.418;13.668;2023-02-22T11:12:24;101241.06;;;9.26;94.13
12172;BME280;6149;52.418;13.668;2023-02-22T11:14:53;101234.97;;;9.24;91.08
12172;BME280;6149;52.418;13.668;2023-02-22T11:17:26;101240.63;;;9.37;90.32
12172;BME280;6149;52.418;13.668;2023-02-22T11:19:57;101233.69;;;9.34;90.71
12172;BME280;6149;52.418;13.668;2023-02-22T11:22:26;101237.25;;;9.33;91.14
12172;BME280;6149;52.418;13.668;2023-02-22T11:24:57;101226.69;;;9.33;90.34
12172;BME280;6149;52.418;13.668;2023-02-22T11:27:29;101231.50;;;9.46;89.96
12172;BME280;6149;52.418;13.668;2023-02-22T11:30:21;101231.38;;;9.49;89.10
12172;BME280;6149;52.418;13.668;2023-02-22T11:32:55;101226.56;;;9.60;89.06
12172;BME280;6149;52.418;13.668;2023-02-22T11:35:35;101233.69;;;9.58;88.84
12172;BME280;6149;52.418;13.668;2023-02-22T11:38:14;101227.66;;;9.54;88.63
12172;BME280;6149;52.418;13.668;2023-02-22T11:40:43;101221.28;;;9.60;88.47
12172;BME280;6149;52.418;13.668;2023-02-22T11:43:15;101215.66;;;9.67;87.27
12172;BME280;6149;52.418;13.668;2023-02-22T11:45:58;101201.94;;;9.59;87.09
12172;BME280;6149;52.418;13.668;2023-02-22T11:48:29;101216.22;;;9.54;87.35
12172;BME280;6149;52.418;13.668;2023-02-22T11:51:11;101202.16;;;9.53;87.26
12172;BME280;6149;52.418;13.668;2023-02-22T11:57:05;101194.69;;;9.64;87.71
12172;BME280;6149;52.418;13.668;2023-02-22T11:59:45;101194.44;;;9.92;85.95
12172;BME280;6149;52.418;13.668;2023-02-22T12:02:30;101191.72;;;9.72;86.70
12172;BME280;6149;52.418;13.668;2023-02-22T12:05:17;101188.34;;;9.68;86.54
12172;BME280;6149;52.418;13.668;2023-02-22T12:08:00;101187.53;;;9.66;84.01
12172;BME280;6149;52.418;13.668;2023-02-22T12:10:43;101190.88;;;9.71;84.09
12172;BME280;6149;52.418;13.668;2023-02-22T12:13:39;101183.94;;;9.69;86.05
12172;BME280;6149;52.418;13.668;2023-02-22T12:16:20;101186.56;;;9.69;83.67
12172;BME280;6149;52.418;13.668;2023-02-22T12:19:03;101184.13;;;9.64;84.34
12172;BME280;6149;52.418;13.668;2023-02-22T12:21:36;101180.41;;;9.68;84.10
12172;BME280;6149;52.418;13.668;2023-02-22T12:24:09;101180.91;;;9.78;83.13
12172;BME280;6149;52.418;13.668;2023-02-22T12:26:40;101190.44;;;9.82;82.31
12172;BME280;6149;52.418;13.668;2023-02-22T12:29:11;101183.75;;;9.73;81.28
12172;BME280;6149;52.418;13.668;2023-02-22T12:31:42;101176.81;;;9.71;81.83
12172;BME280;6149;52.418;13.668;2023-02-22T12:34:16;101181.34;;;9.67;81.90
12172;BME280;6149;52.418;13.668;2023-02-22T12:36:54;101183.88;;;9.70;80.07
12172;BME280;6149;52.418;13.668;2023-02-22T12:39:38;101184.03;;;9.66;81.53
12172;BME280;6149;52.418;13.668;2023-02-22T12:42:17;101187.63;;;9.65;81.61
12172;BME280;6149;52.418;13.668;2023-02-22T12:44:51;101187.53;;;9.66;80.85
12172;BME280;6149;52.418;13.668;2023-02-22T12:47:27;101179.44;;;9.71;82.01
12172;BME280;6149;52.418;13.668;2023-02-22T12:50:04;101180.41;;;9.68;81.46
12172;BME280;6149;52.418;13.668;2023-02-22T12:52:41;101179.50;;;9.69;82.46
12172;BME280;6149;52.418;13.668;2023-02-22T12:55:14;101179.81;;;9.84;81.37
12172;BME280;6149;52.418;13.668;2023-02-22T12:57:48;101183.19;;;9.87;84.51
12172;BME280;6149;52.418;13.668;2023-02-22T13:00:25;101175.31;;;9.86;81.33
12172;BME280;6149;52.418;13.668;2023-02-22T13:02:59;101170.34;;;10.00;81.44
12172;BME280;6149;52.418;13.668;2023-02-22T13:05:31;101180.25;;;9.95;81.77
12172;BME280;6149;52.418;13.668;2023-02-22T13:08:17;101171.53;;;9.93;80.76
12172;BME280;6149;52.418;13.668;2023-02-22T13:11:16;101176.00;;;9.91;82.16
12172;BME280;6149;52.418;13.668;2023-02-22T13:13:54;101177.09;;;9.85;82.43
12172;BME280;6149;52.418;13.668;2023-02-22T13:16:37;101171.28;;;9.99;81.90
12172;BME280;6149;52.418;13.668;2023-02-22T13:19:15;101164.25;;;9.98;82.91